createdAt,value
2019-01-31T00:02:17.390Z,88.10
2019-01-31T00:04:55.582Z,88.19
2019-01-31T00:07:54.121Z,87.78
2019-01-31T00:11:02.803Z,87.30
2019-01-31T00:14:10.635Z,87.47
2019-01-31T00:17:18.900Z,86.93
2019-01-31T00:20:12.197Z,86.98
2019-01-31T00:23:08.098Z,86.50
2019-01-31T00:26:20.112Z,86.25
2019-01-31T00:29:36.457Z,86.42
2019-01-31T00:32:54.560Z,86.31
2019-01-31T00:36:03.027Z,85.92
2019-01-31T00:38:56.860Z,86.21
2019-01-31T00:42:02.875Z,86.27
2019-01-31T00:45:13.059Z,86.01
2019-01-31T00:48:25.930Z,85.96
2019-01-31T00:51:37.983Z,86.24
2019-01-31T00:54:32.856Z,86.58
2019-01-31T00:57:21.917Z,86.73
2019-01-31T01:00:12.001Z,86.28
2019-01-31T01:03:02.261Z,85.95
2019-01-31T01:05:55.917Z,86.35
2019-01-31T01:08:55.800Z,86.34
2019-01-31T01:11:52.387Z,86.19
2019-01-31T01:14:53.450Z,86.65
2019-01-31T01:18:05.217Z,87.07
2019-01-31T01:20:58.615Z,86.68
2019-01-31T01:24:08.091Z,87.26
2019-01-31T01:27:07.910Z,87.86
2019-01-31T01:30:01.739Z,87.25
2019-01-31T01:33:07.289Z,87.25
2019-01-31T01:35:58.342Z,87.21
2019-01-31T01:39:27.036Z,86.72
2019-01-31T01:42:44.054Z,86.75
2019-01-31T01:45:51.986Z,86.58
2019-01-31T01:48:35.627Z,86.63
2019-01-31T01:51:26.969Z,87.13
2019-01-31T01:54:40.124Z,86.88
2019-01-31T01:58:05.709Z,86.26
2019-01-31T02:01:15.669Z,86.58
2019-01-31T02:04:12.278Z,85.42
2019-01-31T02:07:15.156Z,86.31
2019-01-31T02:10:20.230Z,85.61
2019-01-31T02:13:42.369Z,86.86
2019-01-31T02:16:42.329Z,85.24
2019-01-31T02:20:04.884Z,85.13
2019-01-31T02:23:30.422Z,85.29
2019-01-31T02:26:26.916Z,85.60
2019-01-31T02:29:24.744Z,85.68
2019-01-31T02:32:43.509Z,86.15
2019-01-31T02:35:34.961Z,87.53
2019-01-31T02:38:40.405Z,88.73
2019-01-31T02:41:33.517Z,88.09
2019-01-31T02:44:30.051Z,86.83
2019-01-31T02:47:25.526Z,86.70
2019-01-31T02:50:27.377Z,86.43
2019-01-31T02:53:12.555Z,86.52
2019-01-31T02:56:20.174Z,86.32
2019-01-31T02:58:58.805Z,86.51
2019-01-31T03:01:52.115Z,86.22
2019-01-31T03:05:09.104Z,86.16
2019-01-31T03:08:28.181Z,84.82
2019-01-31T03:11:38.381Z,85.43
2019-01-31T03:14:36.760Z,86.62
2019-01-31T03:17:43.169Z,86.38
2019-01-31T03:20:23.910Z,85.71
2019-01-31T03:23:33.762Z,84.82
2019-01-31T03:26:25.516Z,84.51
2019-01-31T03:29:40.002Z,85.04
2019-01-31T03:32:18.426Z,86.20
2019-01-31T03:35:31.370Z,86.28
2019-01-31T03:38:37.333Z,86.56
2019-01-31T03:41:44.247Z,86.98
2019-01-31T03:44:39.317Z,87.71
2019-01-31T03:47:17.981Z,88.06
2019-01-31T03:50:33.745Z,87.94
2019-01-31T03:53:34.790Z,87.97
2019-01-31T03:56:48.238Z,87.97
2019-01-31T03:59:27.341Z,87.84
2019-01-31T04:02:20.914Z,87.61
2019-01-31T04:05:18.704Z,87.80
2019-01-31T04:07:47.475Z,88.47
2019-01-31T04:10:19.005Z,88.25
2019-01-31T04:12:46.792Z,88.39
2019-01-31T04:15:16.020Z,87.73
2019-01-31T04:17:44.816Z,87.49
2019-01-31T04:20:13.870Z,87.60
2019-01-31T04:22:42.647Z,88.03
2019-01-31T04:25:11.633Z,88.08
2019-01-31T04:27:40.469Z,88.15
2019-01-31T04:30:12.400Z,88.42
2019-01-31T04:32:41.331Z,88.44
2019-01-31T04:35:10.279Z,89.08
2019-01-31T04:37:39.694Z,88.96
2019-01-31T04:40:09.067Z,88.99
2019-01-31T04:42:37.893Z,88.58
2019-01-31T04:45:07.167Z,88.49
2019-01-31T04:47:36.108Z,88.55
2019-01-31T04:50:07.219Z,88.69
2019-01-31T04:52:36.025Z,89.10
2019-01-31T04:55:05.830Z,89.36
2019-01-31T04:57:34.773Z,89.82
2019-01-31T05:00:03.817Z,89.77
2019-01-31T05:02:32.699Z,89.71
2019-01-31T05:05:01.572Z,89.71
2019-01-31T05:07:30.430Z,89.75
2019-01-31T05:09:59.293Z,90.05
2019-01-31T05:12:28.095Z,89.75
2019-01-31T05:14:56.899Z,89.61
2019-01-31T05:17:25.862Z,89.66
2019-01-31T05:19:54.645Z,89.50
2019-01-31T05:22:23.433Z,90.02
2019-01-31T05:24:52.228Z,89.56
2019-01-31T05:27:21.008Z,89.01
2019-01-31T05:29:49.809Z,88.70
2019-01-31T05:32:18.662Z,88.81
2019-01-31T05:34:47.458Z,89.87
2019-01-31T05:37:16.399Z,89.55
2019-01-31T05:39:45.189Z,89.82
2019-01-31T05:42:14.035Z,89.76
2019-01-31T05:44:42.825Z,89.81
2019-01-31T05:47:11.632Z,90.50
2019-01-31T05:49:40.416Z,91.17
2019-01-31T05:52:09.387Z,91.90
2019-01-31T05:54:38.200Z,92.58
2019-01-31T05:57:07.056Z,93.36
2019-01-31T05:59:35.959Z,94.07
2019-01-31T06:02:04.884Z,93.46
2019-01-31T06:04:33.695Z,93.75
2019-01-31T06:07:11.027Z,91.33
2019-01-31T06:09:33.132Z,90.79
2019-01-31T06:12:01.929Z,88.91
2019-01-31T06:14:30.818Z,88.47
2019-01-31T06:16:59.624Z,87.30
2019-01-31T06:19:28.419Z,86.19
2019-01-31T06:21:57.284Z,85.88
2019-01-31T06:24:26.095Z,85.67
2019-01-31T06:26:54.866Z,85.07
2019-01-31T06:29:23.653Z,85.51
2019-01-31T06:31:52.479Z,85.79
2019-01-31T06:34:21.418Z,85.53
2019-01-31T06:36:50.225Z,84.63
2019-01-31T06:39:21.177Z,83.97
2019-01-31T06:41:49.896Z,83.26
2019-01-31T06:44:18.790Z,83.06
2019-01-31T06:46:47.553Z,83.85
2019-01-31T06:49:16.416Z,86.34
2019-01-31T06:51:45.206Z,88.18
2019-01-31T06:54:14.402Z,90.03
2019-01-31T06:56:43.257Z,90.98
2019-01-31T06:59:14.556Z,91.84
2019-01-31T07:01:42.541Z,92.37
2019-01-31T07:04:11.422Z,93.04
2019-01-31T07:06:40.187Z,93.39
2019-01-31T07:09:10.990Z,93.89
2019-01-31T07:11:39.940Z,93.92
2019-01-31T07:14:08.794Z,94.01
2019-01-31T07:16:37.660Z,94.12
2019-01-31T07:19:06.791Z,94.05
2019-01-31T07:21:35.655Z,94.03
2019-01-31T07:24:05.001Z,94.65
2019-01-31T07:26:33.920Z,95.50
2019-01-31T07:29:02.925Z,96.05
2019-01-31T07:31:31.854Z,96.64
2019-01-31T07:34:00.780Z,96.89
2019-01-31T07:36:29.798Z,97.63
2019-01-31T07:38:58.587Z,97.98
2019-01-31T07:41:27.711Z,98.08
2019-01-31T07:43:56.511Z,98.39
2019-01-31T07:46:25.535Z,98.89
2019-01-31T07:48:54.401Z,99.49
2019-01-31T07:51:23.284Z,99.78
2019-01-31T07:53:53.135Z,99.79
2019-01-31T07:56:21.930Z,99.76
2019-01-31T07:58:50.721Z,99.96
2019-01-31T08:01:19.580Z,99.96
2019-01-31T08:03:48.455Z,100.00
2019-01-31T08:06:17.329Z,100.00
2019-01-31T08:08:46.189Z,100.00
2019-01-31T08:11:15.005Z,100.00
2019-01-31T08:13:43.815Z,100.00
2019-01-31T08:16:12.787Z,100.00
2019-01-31T08:18:41.654Z,100.00
2019-01-31T08:21:10.591Z,100.00
2019-01-31T08:23:39.467Z,100.00
2019-01-31T08:26:08.334Z,100.00
2019-01-31T08:28:37.201Z,100.00
2019-01-31T08:31:06.343Z,100.00
2019-01-31T08:33:35.534Z,100.00
2019-01-31T08:36:04.606Z,100.00
2019-01-31T08:38:33.386Z,100.00
2019-01-31T08:41:02.288Z,100.00
2019-01-31T08:43:31.153Z,100.00
2019-01-31T08:45:59.944Z,100.00
2019-01-31T08:48:28.777Z,100.00
2019-01-31T08:50:57.812Z,100.00
2019-01-31T08:53:26.998Z,100.00
2019-01-31T08:55:55.927Z,100.00
2019-01-31T08:58:24.739Z,100.00
2019-01-31T09:00:53.659Z,100.00
2019-01-31T09:03:22.524Z,98.32
2019-01-31T09:05:51.886Z,97.92
2019-01-31T09:08:20.866Z,96.76
2019-01-31T09:10:49.640Z,96.29
2019-01-31T09:13:18.493Z,96.11
2019-01-31T09:15:47.743Z,95.73
2019-01-31T09:18:16.607Z,95.68
2019-01-31T09:21:05.178Z,96.04
2019-01-31T09:24:15.179Z,96.97
2019-01-31T09:27:08.424Z,97.73
2019-01-31T09:30:02.320Z,98.31
2019-01-31T09:33:15.260Z,98.75
2019-01-31T09:36:35.637Z,99.19
2019-01-31T09:39:45.921Z,99.95
2019-01-31T09:42:47.214Z,99.70
2019-01-31T09:45:45.071Z,99.06
2019-01-31T09:48:47.581Z,97.99
2019-01-31T09:52:21.947Z,97.19
2019-01-31T09:55:20.240Z,97.33
2019-01-31T09:58:28.411Z,96.08
2019-01-31T10:01:25.001Z,93.26
2019-01-31T10:04:27.191Z,91.42
2019-01-31T10:07:33.378Z,91.28
2019-01-31T10:10:22.899Z,91.24
2019-01-31T10:13:34.699Z,89.24
2019-01-31T10:16:19.139Z,88.24
2019-01-31T10:19:26.311Z,86.95
2019-01-31T10:22:21.698Z,86.30
2019-01-31T10:25:25.444Z,85.97
2019-01-31T10:28:10.454Z,86.25
2019-01-31T10:31:07.027Z,84.50
2019-01-31T10:33:49.975Z,82.91
2019-01-31T10:36:30.530Z,82.13
2019-01-31T10:39:30.912Z,81.93
2019-01-31T10:42:29.990Z,80.17
2019-01-31T10:45:36.459Z,81.55
2019-01-31T10:48:46.775Z,81.99
2019-01-31T10:51:58.620Z,81.41
2019-01-31T10:54:46.498Z,80.64
2019-01-31T10:57:52.418Z,80.75
2019-01-31T11:00:57.119Z,81.84
2019-01-31T11:04:28.559Z,82.77
2019-01-31T11:07:47.400Z,80.64
2019-01-31T11:10:45.875Z,80.32
2019-01-31T11:14:29.473Z,80.63
2019-01-31T11:17:48.364Z,79.77
2019-01-31T11:20:49.910Z,79.41
2019-01-31T11:23:53.998Z,79.95
2019-01-31T11:27:06.304Z,79.30
2019-01-31T11:30:00.341Z,76.38
2019-01-31T11:32:59.963Z,76.39
2019-01-31T11:35:55.374Z,76.12
2019-01-31T11:38:56.628Z,76.14
2019-01-31T11:41:45.754Z,75.30
2019-01-31T11:44:59.720Z,75.92
2019-01-31T11:48:12.858Z,75.81
2019-01-31T11:51:12.402Z,74.71
2019-01-31T11:54:00.797Z,74.53
2019-01-31T11:57:05.795Z,73.27
2019-01-31T11:59:34.694Z,73.89
2019-01-31T12:02:03.709Z,75.04
2019-01-31T12:04:32.563Z,73.92
2019-01-31T12:07:01.433Z,72.58
2019-01-31T12:09:30.453Z,73.05
2019-01-31T12:11:59.439Z,73.14
2019-01-31T12:14:28.319Z,71.69
2019-01-31T12:16:57.182Z,70.88
2019-01-31T12:19:26.037Z,71.23
2019-01-31T12:21:54.962Z,70.73
2019-01-31T12:24:23.772Z,73.29
2019-01-31T12:26:53.025Z,70.58
2019-01-31T12:29:24.937Z,70.20
2019-01-31T12:31:54.109Z,70.05
2019-01-31T12:34:23.065Z,66.44
2019-01-31T12:36:51.931Z,64.01
2019-01-31T12:39:20.761Z,64.36
2019-01-31T12:41:49.541Z,61.59
2019-01-31T12:44:18.480Z,64.65
2019-01-31T12:46:47.392Z,64.21
2019-01-31T12:49:16.155Z,62.23
2019-01-31T12:51:45.026Z,60.95
2019-01-31T12:54:13.912Z,60.16
2019-01-31T12:56:42.772Z,61.90
2019-01-31T12:59:11.638Z,61.15
2019-01-31T13:01:40.803Z,61.16
2019-01-31T13:04:09.659Z,61.46
2019-01-31T13:06:38.440Z,61.50
2019-01-31T13:09:09.967Z,61.13
2019-01-31T13:11:39.123Z,60.23
2019-01-31T13:14:08.055Z,61.50
2019-01-31T13:16:36.979Z,60.14
2019-01-31T13:19:06.038Z,61.10
2019-01-31T13:21:34.896Z,59.68
2019-01-31T13:24:04.340Z,59.26
2019-01-31T13:26:33.299Z,63.64
2019-01-31T13:29:02.069Z,65.52
2019-01-31T13:31:30.939Z,66.25
2019-01-31T13:33:59.789Z,65.36
2019-01-31T13:36:28.649Z,65.25
2019-01-31T13:38:57.581Z,66.10
2019-01-31T13:41:26.561Z,66.06
2019-01-31T13:43:57.583Z,64.78
2019-01-31T13:46:27.023Z,63.56
2019-01-31T13:48:56.872Z,62.77
2019-01-31T13:51:25.830Z,62.05
2019-01-31T13:53:54.757Z,62.74
2019-01-31T13:56:23.603Z,63.16
2019-01-31T13:58:52.462Z,62.35
2019-01-31T14:01:21.397Z,63.22
2019-01-31T14:03:50.258Z,62.91
2019-01-31T14:06:19.117Z,63.70
2019-01-31T14:08:47.993Z,62.59
2019-01-31T14:11:17.124Z,64.46
2019-01-31T14:13:45.915Z,64.17
2019-01-31T14:16:15.247Z,64.41
2019-01-31T14:18:44.030Z,63.80
2019-01-31T14:21:12.826Z,63.92
2019-01-31T14:23:41.622Z,62.76
2019-01-31T14:26:10.547Z,64.74
2019-01-31T14:28:39.418Z,62.83
2019-01-31T14:31:08.207Z,61.43
2019-01-31T14:33:37.004Z,62.23
2019-01-31T14:36:06.274Z,62.74
2019-01-31T14:38:35.137Z,64.19
2019-01-31T14:41:04.448Z,65.38
2019-01-31T14:43:33.275Z,66.48
2019-01-31T14:46:02.061Z,66.12
2019-01-31T14:48:30.910Z,64.57
2019-01-31T14:50:59.921Z,65.00
2019-01-31T14:53:29.487Z,66.20
2019-01-31T14:55:59.169Z,65.27
2019-01-31T14:58:28.107Z,65.98
2019-01-31T15:00:56.962Z,65.98
2019-01-31T15:03:25.733Z,66.26
2019-01-31T15:05:54.655Z,66.00
2019-01-31T15:08:23.444Z,66.41
2019-01-31T15:10:52.374Z,65.42
2019-01-31T15:13:21.221Z,64.47
2019-01-31T15:15:50.105Z,63.97
2019-01-31T15:18:18.965Z,65.63
2019-01-31T15:20:47.738Z,66.49
2019-01-31T15:23:16.599Z,66.10
2019-01-31T15:25:45.522Z,65.81
2019-01-31T15:28:14.504Z,67.28
2019-01-31T15:30:43.426Z,68.47
2019-01-31T15:33:13.826Z,68.84
2019-01-31T15:35:43.944Z,68.82
2019-01-31T15:38:12.789Z,69.92
2019-01-31T15:40:47.798Z,70.79
2019-01-31T15:43:16.953Z,70.46
2019-01-31T15:45:46.071Z,70.61
2019-01-31T15:48:15.057Z,70.88
2019-01-31T15:50:43.957Z,71.20
2019-01-31T15:53:12.936Z,71.73
2019-01-31T15:55:42.189Z,72.08
2019-01-31T15:58:11.198Z,71.86
2019-01-31T16:00:55.016Z,71.78
2019-01-31T16:03:25.221Z,71.70
2019-01-31T16:05:54.258Z,74.12
2019-01-31T16:08:23.649Z,73.10
2019-01-31T16:10:52.726Z,73.04
2019-01-31T16:13:21.660Z,73.35
2019-01-31T16:15:50.959Z,75.47
2019-01-31T16:18:19.777Z,75.86
2019-01-31T16:20:48.834Z,74.87
2019-01-31T16:23:17.856Z,75.29
2019-01-31T16:25:47.869Z,76.25
2019-01-31T16:28:17.101Z,76.37
2019-01-31T16:30:46.042Z,76.95
2019-01-31T16:33:15.167Z,76.95
2019-01-31T16:35:44.890Z,77.13
2019-01-31T16:38:13.835Z,77.30
2019-01-31T16:40:42.800Z,77.47
2019-01-31T16:43:11.750Z,78.05
2019-01-31T16:45:40.653Z,78.58
2019-01-31T16:48:09.697Z,78.96
2019-01-31T16:50:38.778Z,79.13
2019-01-31T16:53:09.111Z,79.34
2019-01-31T16:55:38.050Z,79.75
2019-01-31T16:58:07.625Z,81.07
2019-01-31T17:00:36.476Z,81.07
2019-01-31T17:03:06.578Z,81.50
2019-01-31T17:05:35.784Z,82.13
2019-01-31T17:08:05.717Z,81.85
2019-01-31T17:10:34.668Z,82.70
2019-01-31T17:13:05.584Z,83.64
2019-01-31T17:15:35.063Z,82.98
2019-01-31T17:18:06.542Z,81.97
2019-01-31T17:20:38.129Z,81.06
2019-01-31T17:23:07.241Z,82.15
2019-01-31T17:25:36.175Z,82.29
2019-01-31T17:28:06.505Z,82.79
2019-01-31T17:30:35.368Z,82.56
2019-01-31T17:33:04.632Z,82.89
2019-01-31T17:35:33.576Z,83.37
2019-01-31T17:38:02.512Z,83.64
2019-01-31T17:40:33.731Z,83.97
2019-01-31T17:43:02.668Z,84.44
2019-01-31T17:45:31.515Z,84.52
2019-01-31T17:48:00.770Z,84.14
2019-01-31T17:50:29.712Z,84.19
2019-01-31T17:52:58.635Z,84.31
2019-01-31T17:55:27.684Z,83.05
2019-01-31T17:57:56.615Z,82.85
2019-01-31T18:00:41.679Z,82.25
2019-01-31T18:03:10.604Z,81.86
2019-01-31T18:05:39.383Z,81.66
2019-01-31T18:08:09.372Z,82.22
2019-01-31T18:10:38.318Z,82.61
2019-01-31T18:13:07.505Z,83.58
2019-01-31T18:15:42.344Z,82.82
2019-01-31T18:18:07.884Z,82.61
2019-01-31T18:20:37.606Z,83.10
2019-01-31T18:23:06.459Z,83.08
2019-01-31T18:25:35.317Z,82.80
2019-01-31T18:28:04.276Z,82.70
2019-01-31T18:30:33.232Z,83.98
2019-01-31T18:33:02.088Z,85.36
2019-01-31T18:35:30.939Z,86.21
2019-01-31T18:37:59.804Z,86.35
2019-01-31T18:40:30.430Z,86.70
2019-01-31T18:42:59.374Z,86.81
2019-01-31T18:45:29.536Z,86.41
2019-01-31T18:47:58.707Z,86.62
2019-01-31T18:50:29.940Z,87.56
2019-01-31T18:52:58.968Z,87.60
2019-01-31T18:55:28.460Z,87.64
2019-01-31T18:57:57.761Z,87.82
2019-01-31T19:00:32.431Z,88.11
2019-01-31T19:03:01.585Z,88.20
2019-01-31T19:05:30.929Z,87.69
2019-01-31T19:07:59.901Z,87.09
2019-01-31T19:10:28.634Z,86.72
2019-01-31T19:12:57.766Z,86.46
2019-01-31T19:15:26.714Z,86.33
2019-01-31T19:18:05.570Z,85.91
2019-01-31T19:20:28.144Z,85.72
2019-01-31T19:22:59.015Z,85.64
2019-01-31T19:25:28.595Z,86.39
2019-01-31T19:27:57.557Z,86.39
2019-01-31T19:30:31.575Z,86.89
2019-01-31T19:33:00.725Z,87.26
2019-01-31T19:35:29.756Z,86.65
2019-01-31T19:38:02.142Z,87.33
2019-01-31T19:40:31.643Z,87.41
2019-01-31T19:43:00.668Z,87.21
2019-01-31T19:45:35.167Z,87.14
2019-01-31T19:48:05.364Z,87.37
2019-01-31T19:50:34.510Z,87.32
2019-01-31T19:53:03.747Z,87.39
2019-01-31T19:55:32.678Z,88.82
2019-01-31T19:58:01.602Z,88.82
2019-01-31T20:00:30.741Z,88.57
2019-01-31T20:02:59.742Z,87.70
2019-01-31T20:05:28.657Z,86.99
2019-01-31T20:07:57.880Z,87.15
2019-01-31T20:10:28.514Z,85.77
2019-01-31T20:12:57.883Z,85.19
2019-01-31T20:15:27.114Z,84.72
2019-01-31T20:17:55.974Z,84.35
2019-01-31T20:20:25.986Z,84.13
2019-01-31T20:22:56.006Z,83.92
2019-01-31T20:25:26.678Z,83.40
2019-01-31T20:27:55.592Z,83.77
2019-01-31T20:30:26.815Z,83.32
2019-01-31T20:32:56.325Z,83.29
2019-01-31T20:35:25.354Z,83.42
2019-01-31T20:37:54.575Z,83.57
2019-01-31T20:40:32.168Z,83.86
2019-01-31T20:43:01.308Z,83.83
2019-01-31T20:45:30.433Z,84.72
2019-01-31T20:47:59.212Z,85.66
2019-01-31T20:50:30.136Z,86.05
2019-01-31T20:52:59.273Z,86.58
2019-01-31T20:55:28.533Z,87.03
2019-01-31T20:57:57.459Z,87.70
2019-01-31T21:00:33.580Z,88.15
2019-01-31T21:03:02.692Z,88.29
2019-01-31T21:05:31.685Z,88.72
2019-01-31T21:08:00.652Z,88.73
2019-01-31T21:10:29.615Z,88.26
2019-01-31T21:12:59.380Z,88.67
2019-01-31T21:15:28.604Z,88.98
2019-01-31T21:17:57.533Z,88.85
2019-01-31T21:20:26.969Z,89.89
2019-01-31T21:22:56.089Z,90.63
2019-01-31T21:25:24.961Z,91.00
2019-01-31T21:27:53.861Z,91.41
2019-01-31T21:30:28.247Z,91.85
2019-01-31T21:32:57.266Z,91.92
2019-01-31T21:35:27.174Z,91.97
2019-01-31T21:37:56.307Z,91.83
2019-01-31T21:40:25.604Z,91.51
2019-01-31T21:42:54.472Z,91.39
2019-01-31T21:45:25.192Z,90.56
2019-01-31T21:47:54.048Z,90.24
2019-01-31T21:50:23.214Z,90.18
2019-01-31T21:52:52.155Z,90.71
2019-01-31T21:55:21.288Z,91.47
2019-01-31T21:57:50.129Z,91.69
2019-01-31T22:03:00.005Z,92.04
2019-01-31T22:05:29.030Z,92.11
2019-01-31T22:07:57.959Z,92.36
2019-01-31T22:10:26.895Z,92.25
2019-01-31T22:12:55.827Z,91.80
2019-01-31T22:15:26.842Z,92.21
2019-01-31T22:17:59.751Z,91.89
2019-01-31T22:20:26.636Z,91.96
2019-01-31T22:22:55.604Z,91.45
2019-01-31T22:25:24.695Z,91.09
2019-01-31T22:27:53.623Z,90.93
2019-01-31T22:30:24.863Z,90.40
2019-01-31T22:32:53.800Z,90.09
2019-01-31T22:35:22.668Z,89.72
2019-01-31T22:37:51.705Z,90.08
2019-01-31T22:40:20.826Z,90.20
2019-01-31T22:42:49.668Z,90.17
2019-01-31T22:45:20.444Z,90.01
2019-01-31T22:47:49.463Z,90.28
2019-01-31T22:50:19.766Z,89.70
2019-01-31T22:52:48.696Z,89.55
2019-01-31T22:55:19.096Z,89.75
2019-01-31T22:57:48.035Z,89.73
2019-01-31T23:00:56.723Z,89.88
2019-01-31T23:03:25.689Z,90.18
2019-01-31T23:05:54.535Z,90.33
2019-01-31T23:08:23.565Z,90.57
2019-01-31T23:10:52.609Z,90.80
2019-01-31T23:13:21.495Z,91.26
2019-01-31T23:15:50.332Z,90.00
2019-01-31T23:18:19.173Z,89.17
2019-01-31T23:20:48.027Z,88.91
2019-01-31T23:23:17.397Z,88.96
2019-01-31T23:25:46.262Z,88.66
2019-01-31T23:28:15.278Z,88.13
2019-01-31T23:30:44.076Z,87.76
2019-01-31T23:33:13.654Z,87.48
2019-01-31T23:35:42.609Z,87.80
2019-01-31T23:38:11.449Z,87.90
2019-01-31T23:40:40.244Z,87.90
2019-01-31T23:43:09.251Z,87.74
2019-01-31T23:45:38.112Z,87.59
2019-01-31T23:48:07.045Z,87.36
2019-01-31T23:50:35.860Z,87.05
2019-01-31T23:53:04.895Z,87.22
2019-01-31T23:55:33.686Z,87.09
2019-01-31T23:58:02.541Z,86.92
